Time;durP1;ratioP1;P1;durP2;ratioP2;P2;SDS_P1;SDS_P2;PMS_P1;PMS_P2;Temp;Humidity;BMP_temperature;BMP_pressure;BME280_temperature;BME280_humidity;BME280_pressure;Samples;Min_cycle;Max_cycle;Signal;HPM_P1;HPM_P2
2021/07/07 00:01:42;;;;;;;3.15;1.63;;;23.20;90.20;;;;;;5057100;28;20031;-72
2021/07/07 00:04:28;;;;;;;2.17;1.30;;;23.30;90.10;;;;;;5071676;28;20519;-71
2021/07/07 00:07:13;;;;;;;2.65;1.67;;;23.20;90.10;;;;;;5072134;28;20032;-71
2021/07/07 00:10:00;;;;;;;5.50;1.60;;;23.20;90.20;;;;;;5072239;28;20028;-71
2021/07/07 00:12:48;;;;;;;4.07;1.63;;;23.20;90.30;;;;;;5073410;28;20133;-71
2021/07/07 00:15:34;;;;;;;3.65;1.73;;;23.20;90.40;;;;;;5072050;28;20443;-71
2021/07/07 00:18:20;;;;;;;2.45;1.75;;;23.10;90.50;;;;;;5071738;28;20534;-71
2021/07/07 00:21:08;;;;;;;3.30;1.70;;;23.10;90.50;;;;;;5072761;28;20024;-71
2021/07/07 00:23:54;;;;;;;3.95;1.80;;;23.10;90.60;;;;;;5071499;28;20032;-71
2021/07/07 00:26:40;;;;;;;2.63;1.67;;;23.10;90.70;;;;;;5072390;28;20091;-71
2021/07/07 00:29:25;;;;;;;2.70;1.75;;;23.00;90.80;;;;;;5068831;28;20100;-71
2021/07/07 00:32:14;;;;;;;2.47;1.73;;;23.00;91.00;;;;;;5071693;28;20534;-71
2021/07/07 00:34:59;;;;;;;3.67;1.85;;;22.90;91.10;;;;;;5072481;28;20020;-71
2021/07/07 00:37:45;;;;;;;2.40;1.75;;;22.90;91.30;;;;;;5071652;28;20381;-71
2021/07/07 00:40:31;;;;;;;2.88;1.67;;;22.90;91.30;;;;;;5072703;28;20286;-71
2021/07/07 00:43:17;;;;;;;2.72;1.60;;;22.90;91.40;;;;;;5069217;28;20112;-71
2021/07/07 00:46:03;;;;;;;3.78;1.92;;;22.80;91.60;;;;;;5070539;28;20040;-71
2021/07/07 00:48:49;;;;;;;2.75;1.70;;;22.80;91.70;;;;;;5070593;28;20028;-71
2021/07/07 00:51:37;;;;;;;4.43;1.77;;;22.80;91.70;;;;;;5073050;28;20024;-71
2021/07/07 00:54:24;;;;;;;2.38;1.50;;;22.70;91.90;;;;;;5071213;28;20028;-71
2021/07/07 00:57:11;;;;;;;3.00;1.88;;;22.70;92.00;;;;;;5071780;28;20029;-72
2021/07/07 00:59:57;;;;;;;2.15;1.65;;;22.70;92.10;;;;;;5070071;28;20031;-71
2021/07/07 01:02:44;;;;;;;2.78;1.77;;;22.60;92.10;;;;;;5071750;28;20025;-71
2021/07/07 01:05:30;;;;;;;2.53;1.50;;;22.60;92.20;;;;;;5070181;28;20048;-71
2021/07/07 01:08:16;;;;;;;3.40;1.90;;;22.70;92.30;;;;;;5070724;28;20045;-71
2021/07/07 01:11:02;;;;;;;2.53;1.60;;;22.60;92.30;;;;;;5070861;28;20025;-71
2021/07/07 01:13:48;;;;;;;2.63;1.92;;;22.60;92.50;;;;;;5069853;28;20035;-71
2021/07/07 01:16:34;;;;;;;3.95;1.80;;;22.60;92.50;;;;;;5071963;28;20090;-71
2021/07/07 01:19:20;;;;;;;2.67;1.70;;;22.60;92.50;;;;;;5071094;28;20037;-71
2021/07/07 01:22:06;;;;;;;2.88;1.88;;;22.60;92.60;;;;;;5071892;28;20021;-70
2021/07/07 01:24:52;;;;;;;4.88;1.90;;;22.50;92.60;;;;;;5056086;28;20385;-70
2021/07/07 01:27:39;;;;;;;3.00;1.90;;;22.50;92.80;;;;;;5059788;28;20495;-70
2021/07/07 01:30:25;;;;;;;2.90;1.70;;;22.50;92.90;;;;;;5070666;28;20021;-70
2021/07/07 01:33:11;;;;;;;3.58;2.00;;;22.50;92.90;;;;;;5070105;28;20031;-70
2021/07/07 01:35:57;;;;;;;2.90;1.90;;;22.50;93.00;;;;;;5071218;28;20108;-71
2021/07/07 01:38:43;;;;;;;2.80;1.60;;;22.50;93.20;;;;;;5070109;28;20032;-71
2021/07/07 01:41:29;;;;;;;3.22;1.70;;;22.40;93.20;;;;;;5070289;28;20143;-72
2021/07/07 01:44:15;;;;;;;2.70;1.58;;;22.30;93.40;;;;;;5051539;28;20021;-71
2021/07/07 01:47:03;;;;;;;2.00;1.55;;;22.30;93.30;;;;;;5055021;28;20071;-71
2021/07/07 01:49:49;;;;;;;3.65;1.90;;;22.40;93.40;;;;;;5068022;28;20078;-72
2021/07/07 01:52:33;;;;;;;2.95;1.65;;;22.30;93.30;;;;;;5070835;28;20042;-71
2021/07/07 01:55:17;;;;;;;6.68;2.13;;;22.30;93.30;;;;;;5071769;28;20404;-71
2021/07/07 01:58:02;;;;;;;2.92;2.08;;;22.30;93.40;;;;;;5070724;28;20499;-71
2021/07/07 02:00:46;;;;;;;3.47;2.10;;;22.20;93.40;;;;;;5070855;28;20085;-71
2021/07/07 02:03:31;;;;;;;2.95;1.75;;;22.20;93.50;;;;;;5070607;28;20498;-70
2021/07/07 02:06:15;;;;;;;3.20;2.00;;;22.20;93.50;;;;;;5071435;28;20087;-70
2021/07/07 02:09:00;;;;;;;3.40;1.85;;;22.20;93.70;;;;;;5070798;28;20063;-70
2021/07/07 02:11:44;;;;;;;2.97;1.80;;;22.20;93.80;;;;;;5070288;28;20031;-70
2021/07/07 02:14:28;;;;;;;3.42;1.77;;;22.10;93.90;;;;;;5071586;28;20067;-70
2021/07/07 02:17:12;;;;;;;5.20;2.10;;;22.10;93.90;;;;;;5070154;28;20437;-70
2021/07/07 02:19:56;;;;;;;3.95;2.15;;;22.10;94.10;;;;;;5070029;28;20523;-71
2021/07/07 02:22:41;;;;;;;4.80;2.10;;;22.10;94.10;;;;;;5069317;28;20120;-71
2021/07/07 02:25:31;;;;;;;2.20;1.83;;;22.00;94.30;;;;;;5071195;28;20070;-71
2021/07/07 02:28:17;;;;;;;3.28;2.00;;;22.00;94.50;;;;;;5069865;28;20050;-71
2021/07/07 02:31:01;;;;;;;3.33;1.90;;;22.00;94.50;;;;;;5071022;28;20032;-71
2021/07/07 02:33:45;;;;;;;2.13;1.70;;;22.00;94.50;;;;;;5069248;28;20052;-72
2021/07/07 02:36:29;;;;;;;4.75;2.17;;;22.00;94.60;;;;;;5070791;28;20400;-71
2021/07/07 02:39:13;;;;;;;5.23;2.30;;;21.90;94.60;;;;;;5052631;28;20040;-71
2021/07/07 02:41:57;;;;;;;5.47;2.10;;;21.90;94.70;;;;;;5058438;28;20780;-71
2021/07/07 02:44:41;;;;;;;3.37;2.20;;;21.90;94.90;;;;;;5060071;28;20036;-71
2021/07/07 02:47:25;;;;;;;4.07;2.38;;;21.90;94.80;;;;;;5072726;28;20400;-72
2021/07/07 02:50:11;;;;;;;5.15;2.35;;;21.80;94.90;;;;;;5073827;28;20503;-72
2021/07/07 02:52:56;;;;;;;3.72;1.95;;;21.90;95.10;;;;;;5074403;28;20110;-72
2021/07/07 02:55:40;;;;;;;3.75;2.25;;;21.80;95.20;;;;;;5074932;28;20444;-72
2021/07/07 02:58:25;;;;;;;6.97;2.88;;;21.80;95.30;;;;;;5073946;28;20043;-72
2021/07/07 03:01:09;;;;;;;9.67;2.77;;;21.70;95.40;;;;;;5074679;28;20427;-72
2021/07/07 03:03:53;;;;;;;4.50;2.55;;;21.60;95.40;;;;;;5073872;28;20550;-71
2021/07/07 03:06:37;;;;;;;3.40;2.40;;;21.60;95.50;;;;;;5073644;28;20319;-71
2021/07/07 03:09:21;;;;;;;2.97;2.20;;;21.50;95.50;;;;;;5054711;28;20658;-70
2021/07/07 03:12:05;;;;;;;5.67;2.40;;;21.50;95.60;;;;;;5058767;28;20063;-69
2021/07/07 03:14:49;;;;;;;3.00;2.10;;;21.50;95.60;;;;;;5074691;28;20499;-69
2021/07/07 03:17:33;;;;;;;4.82;2.80;;;21.40;95.60;;;;;;5073432;28;20039;-69
2021/07/07 03:20:17;;;;;;;5.00;2.30;;;21.40;95.70;;;;;;5073268;28;20040;-70
2021/07/07 03:23:02;;;;;;;6.15;2.55;;;21.40;95.80;;;;;;5073488;28;20125;-70
2021/07/07 03:25:48;;;;;;;4.70;2.33;;;21.40;95.80;;;;;;5074466;28;20203;-70
2021/07/07 03:28:32;;;;;;;4.20;2.67;;;21.40;96.00;;;;;;5073232;28;20051;-69
2021/07/07 03:31:17;;;;;;;4.45;2.42;;;21.30;96.00;;;;;;5073849;28;20388;-71
2021/07/07 03:34:00;;;;;;;4.60;2.38;;;21.30;96.10;;;;;;5068176;28;20040;-72
2021/07/07 03:36:45;;;;;;;3.97;2.95;;;21.40;96.20;;;;;;5067716;28;20495;-73
2021/07/07 03:39:28;;;;;;;6.60;2.60;;;21.30;96.20;;;;;;5071021;28;20120;-72
2021/07/07 03:42:12;;;;;;;3.25;2.33;;;21.30;96.30;;;;;;5072212;28;20059;-72
2021/07/07 03:44:58;;;;;;;4.70;2.97;;;21.40;96.40;;;;;;5070496;28;20059;-72
2021/07/07 03:47:43;;;;;;;4.50;2.70;;;21.40;96.40;;;;;;5066362;28;20128;-73
2021/07/07 03:50:28;;;;;;;5.38;2.90;;;21.40;96.50;;;;;;5072697;28;20078;-72
2021/07/07 03:53:12;;;;;;;5.68;2.85;;;21.40;96.50;;;;;;5072644;28;20537;-72
2021/07/07 03:55:56;;;;;;;5.45;2.90;;;21.40;96.60;;;;;;5074118;28;20039;-72
2021/07/07 03:58:42;;;;;;;4.80;2.97;;;21.40;96.50;;;;;;5072006;28;20078;-72
2021/07/07 04:01:28;;;;;;;3.72;2.60;;;21.50;96.50;;;;;;5072255;28;20074;-72
2021/07/07 04:04:14;;;;;;;5.30;2.80;;;21.50;96.60;;;;;;5052886;28;20021;-72
2021/07/07 04:07:00;;;;;;;3.28;2.60;;;21.50;96.60;;;;;;5056882;28;20071;-71
2021/07/07 04:09:46;;;;;;;5.10;2.72;;;21.50;96.50;;;;;;5073013;28;20488;-72
2021/07/07 04:12:32;;;;;;;3.45;2.80;;;21.50;96.50;;;;;;5072369;28;20108;-71
2021/07/07 04:15:19;;;;;;;6.80;3.03;;;21.50;96.50;;;;;;5056344;28;20040;-71
2021/07/07 04:18:08;;;;;;;3.88;2.22;;;21.40;96.50;;;;;;5069876;28;20056;-71
2021/07/07 04:20:54;;;;;;;6.63;3.22;;;21.50;96.50;;;;;;5072105;28;20492;-71
2021/07/07 04:23:40;;;;;;;4.47;2.85;;;21.50;96.50;;;;;;5071437;28;20028;-70
2021/07/07 04:26:26;;;;;;;5.78;3.42;;;21.40;96.60;;;;;;5072712;28;20129;-70
2021/07/07 04:29:12;;;;;;;5.38;2.95;;;21.40;96.70;;;;;;5073381;28;20040;-70
2021/07/07 04:31:58;;;;;;;4.25;2.97;;;21.30;96.80;;;;;;5071529;28;20100;-70
2021/07/07 04:34:44;;;;;;;4.18;2.63;;;21.20;96.80;;;;;;5072620;28;20029;-69
2021/07/07 04:37:30;;;;;;;5.65;3.05;;;21.20;96.80;;;;;;5070325;28;20021;-70
2021/07/07 04:40:18;;;;;;;5.43;2.97;;;21.20;96.90;;;;;;5071997;28;20511;-70
2021/07/07 04:43:04;;;;;;;6.00;3.35;;;21.20;97.00;;;;;;5070464;28;20027;-70
2021/07/07 04:45:50;;;;;;;4.63;3.08;;;21.20;97.00;;;;;;5068824;28;20036;-70
2021/07/07 04:48:36;;;;;;;5.00;3.20;;;21.30;97.10;;;;;;5071206;28;20049;-71
2021/07/07 04:51:22;;;;;;;5.03;2.90;;;21.20;97.10;;;;;;5071621;28;20021;-71
2021/07/07 04:54:08;;;;;;;4.53;2.90;;;21.30;97.20;;;;;;5072476;28;20021;-71
2021/07/07 04:56:54;;;;;;;3.72;2.78;;;21.30;97.20;;;;;;5068859;28;20378;-72
2021/07/07 04:59:39;;;;;;;6.75;3.00;;;21.30;97.20;;;;;;5071729;28;20283;-72
2021/07/07 05:02:25;;;;;;;4.72;2.92;;;21.30;97.10;;;;;;5069878;28;20056;-71
2021/07/07 05:05:13;;;;;;;4.70;2.58;;;21.40;97.20;;;;;;5071192;28;20082;-71
2021/07/07 05:07:59;;;;;;;4.63;2.58;;;21.40;97.20;;;;;;5069918;28;20093;-70
2021/07/07 05:10:46;;;;;;;5.85;2.80;;;21.40;97.20;;;;;;5068537;28;20107;-73
2021/07/07 05:13:32;;;;;;;5.38;2.75;;;21.40;97.20;;;;;;5069942;28;20511;-71
2021/07/07 05:16:19;;;;;;;3.88;2.42;;;21.40;97.20;;;;;;5069983;28;20035;-71
2021/07/07 05:19:07;;;;;;;5.50;2.85;;;21.40;97.30;;;;;;5071833;28;20032;-71
2021/07/07 05:21:52;;;;;;;4.93;2.65;;;21.40;97.30;;;;;;5069990;28;20029;-70
2021/07/07 05:24:39;;;;;;;5.85;2.90;;;21.40;97.30;;;;;;5072146;28;20041;-71
2021/07/07 05:27:25;;;;;;;5.03;2.58;;;21.40;97.30;;;;;;5070439;28;20048;-71
2021/07/07 05:30:13;;;;;;;5.85;2.60;;;21.40;97.40;;;;;;5056792;28;20051;-71
2021/07/07 05:33:00;;;;;;;4.50;2.70;;;21.40;97.40;;;;;;5069876;28;20074;-70
2021/07/07 05:35:46;;;;;;;3.85;2.67;;;21.40;97.30;;;;;;5069274;28;20491;-70
2021/07/07 05:38:32;;;;;;;7.55;3.00;;;21.50;97.30;;;;;;5054814;28;20386;-70
2021/07/07 05:41:18;;;;;;;9.10;2.60;;;21.50;97.30;;;;;;5070299;28;20055;-71
2021/07/07 05:44:04;;;;;;;17.23;2.65;;;21.50;97.30;;;;;;5061328;28;20150;-69
2021/07/07 05:46:50;;;;;;;6.38;2.55;;;21.70;97.00;;;;;;5060053;28;20050;-69
2021/07/07 05:49:36;;;;;;;6.75;2.72;;;22.00;96.60;;;;;;5060041;28;20123;-66
2021/07/07 05:52:02;;;;;;;9.73;2.90;;;22.20;96.20;;;;;;5068573;28;20111;-67
2021/07/07 05:54:46;;;;;;;5.47;2.75;;;22.40;95.80;;;;;;5077722;28;20098;-66
2021/07/07 05:57:40;;;;;;;5.93;2.42;;;22.50;95.60;;;;;;5067717;28;20067;-68
2021/07/07 06:00:26;;;;;;;4.80;2.13;;;22.50;95.70;;;;;;5065467;28;20617;-68
2021/07/07 06:03:11;;;;;;;8.30;2.67;;;22.40;95.50;;;;;;5057593;28;20040;-68
2021/07/07 06:05:55;;;;;;;6.57;2.90;;;22.50;95.60;;;;;;5068263;28;20318;-69
2021/07/07 06:08:39;;;;;;;4.28;2.65;;;22.50;95.50;;;;;;5067600;28;20106;-69
2021/07/07 06:11:23;;;;;;;6.63;2.77;;;22.50;95.50;;;;;;5069963;28;20027;-68
2021/07/07 06:14:07;;;;;;;8.17;2.70;;;22.50;95.30;;;;;;5059629;28;20365;-68
2021/07/07 06:16:51;;;;;;;4.50;2.22;;;22.60;95.00;;;;;;5061938;28;20297;-68
2021/07/07 06:19:35;;;;;;;12.30;2.57;;;22.80;94.50;;;;;;5067119;28;20116;-68
2021/07/07 06:22:19;;;;;;;7.80;2.63;;;22.90;94.30;;;;;;5060184;28;20344;-68
2021/07/07 06:25:04;;;;;;;11.32;3.17;;;22.90;94.10;;;;;;5062697;28;20385;-66
2021/07/07 06:27:48;;;;;;;6.93;3.08;;;22.90;93.90;;;;;;5064956;28;20117;-68
2021/07/07 06:30:32;;;;;;;6.43;2.80;;;23.00;93.80;;;;;;5066210;28;20089;-68
2021/07/07 06:33:17;;;;;;;8.18;2.63;;;23.00;93.70;;;;;;5064456;28;20124;-68
2021/07/07 06:36:01;;;;;;;5.72;2.83;;;23.00;93.50;;;;;;5052942;28;20044;-68
2021/07/07 06:38:45;;;;;;;7.00;2.47;;;23.00;93.30;;;;;;5066635;28;20550;-68
2021/07/07 06:41:29;;;;;;;5.60;2.63;;;23.00;93.50;;;;;;5051552;28;20044;-68
2021/07/07 06:44:13;;;;;;;5.13;2.25;;;22.90;93.50;;;;;;5062051;28;20059;-68
2021/07/07 06:46:57;;;;;;;6.78;2.38;;;22.90;93.40;;;;;;5065509;28;20048;-68
2021/07/07 06:49:41;;;;;;;6.13;2.70;;;22.90;93.50;;;;;;5069333;28;20043;-68
2021/07/07 06:52:25;;;;;;;7.32;3.20;;;22.90;93.50;;;;;;5071136;28;20125;-68
2021/07/07 06:55:10;;;;;;;;;;;22.80;93.60;;;;;;5068555;28;20100;-68
2021/07/07 06:57:54;;;;;;;5.47;2.75;;;22.80;93.40;;;;;;5066454;28;19955;-68
2021/07/07 07:00:39;;;;;;;;;;;22.90;93.60;;;;;;5063392;28;20040;-68
2021/07/07 07:03:24;;;;;;;5.75;2.92;;;22.90;93.30;;;;;;5064600;28;19915;-68
2021/07/07 07:06:08;;;;;;;4.43;2.53;;;22.90;93.50;;;;;;5059084;28;20109;-68
2021/07/07 07:08:52;;;;;;;5.10;2.80;;;22.80;93.50;;;;;;5082036;28;20055;-68
2021/07/07 07:11:36;;;;;;;5.80;3.08;;;22.70;93.70;;;;;;5051276;28;20028;-68
2021/07/07 07:14:21;;;;;;;5.75;3.22;;;22.70;93.90;;;;;;5081413;28;20098;-68
2021/07/07 07:17:05;;;;;;;4.50;3.28;;;22.60;94.00;;;;;;5074301;28;20057;-68
2021/07/07 07:19:50;;;;;;;5.30;3.33;;;22.50;94.20;;;;;;5062202;28;20108;-68
2021/07/07 07:22:35;;;;;;;9.20;3.22;;;22.30;94.20;;;;;;5064738;28;20090;-68
2021/07/07 07:25:19;;;;;;;5.10;2.97;;;22.20;94.40;;;;;;5067044;28;20079;-68
2021/07/07 07:28:04;;;;;;;5.50;3.38;;;22.30;94.50;;;;;;5070338;28;20043;-68
2021/07/07 07:30:49;;;;;;;5.25;3.13;;;22.20;94.60;;;;;;5067116;28;20101;-67
2021/07/07 07:33:33;;;;;;;7.55;2.53;;;22.10;94.90;;;;;;5067218;28;20070;-67
2021/07/07 07:36:18;;;;;;;4.47;2.78;;;22.20;94.80;;;;;;5061137;28;20452;-68
2021/07/07 07:39:10;;;;;;;7.05;2.28;;;22.40;94.40;;;;;;5062671;28;20034;-67
2021/07/07 07:41:58;;;;;;;5.82;2.20;;;22.60;93.80;;;;;;5094419;28;20074;-64
2021/07/07 07:44:43;;;;;;;3.38;2.70;;;22.80;93.40;;;;;;5083329;28;20039;-64
2021/07/07 07:47:28;;;;;;;7.13;2.88;;;22.90;93.70;;;;;;5072799;28;20042;-64
2021/07/07 07:50:14;;;;;;;6.75;2.25;;;22.90;93.40;;;;;;5072628;28;20096;-65
2021/07/07 07:52:40;;;;;;;6.60;2.97;;;22.90;93.20;;;;;;5061413;28;20062;-65
2021/07/07 07:55:24;;;;;;;7.40;2.25;;;22.90;93.00;;;;;;5069522;28;20031;-65
2021/07/07 07:58:17;;;;;;;5.85;2.42;;;23.00;93.00;;;;;;5069467;28;20396;-65
2021/07/07 08:01:03;;;;;;;12.73;2.85;;;23.10;93.10;;;;;;5065337;28;20024;-65
2021/07/07 08:03:49;;;;;;;6.13;2.92;;;23.00;93.10;;;;;;5069872;28;20031;-65
2021/07/07 08:06:35;;;;;;;4.35;2.97;;;23.00;93.40;;;;;;5063972;28;20057;-65
2021/07/07 08:09:20;;;;;;;5.25;3.25;;;22.90;93.70;;;;;;5058235;28;20570;-65
2021/07/07 08:12:06;;;;;;;6.22;3.45;;;22.70;93.90;;;;;;5065977;28;20396;-66
2021/07/07 08:14:52;;;;;;;5.30;2.95;;;22.50;94.20;;;;;;5048314;28;20146;-65
2021/07/07 08:17:38;;;;;;;6.28;3.10;;;22.40;94.60;;;;;;5066012;28;20031;-65
2021/07/07 08:20:24;;;;;;;4.75;2.92;;;22.30;94.60;;;;;;5067657;28;20396;-65
2021/07/07 08:23:11;;;;;;;5.22;2.60;;;22.20;94.80;;;;;;5067607;28;20365;-65
2021/07/07 08:25:57;;;;;;;3.30;2.50;;;22.10;94.70;;;;;;5068047;28;20033;-65
2021/07/07 08:28:43;;;;;;;4.40;2.63;;;22.00;94.80;;;;;;5071984;28;20067;-65
2021/07/07 08:31:29;;;;;;;5.38;2.78;;;21.90;94.90;;;;;;5061399;28;20103;-65
2021/07/07 08:34:14;;;;;;;4.93;2.58;;;21.90;95.10;;;;;;5064844;28;20111;-65
2021/07/07 08:37:01;;;;;;;4.72;3.05;;;21.90;95.30;;;;;;5067840;28;20088;-65
2021/07/07 08:39:46;;;;;;;3.80;2.78;;;22.00;95.20;;;;;;5063695;28;20048;-65
2021/07/07 08:42:34;;;;;;;3.70;2.65;;;22.10;95.20;;;;;;5071691;28;20032;-65
2021/07/07 08:45:20;;;;;;;5.88;2.83;;;22.20;95.00;;;;;;5069805;28;20024;-65
2021/07/07 08:48:06;;;;;;;4.60;2.25;;;22.30;94.90;;;;;;5072273;28;20520;-65
2021/07/07 08:50:57;;;;;;;4.65;2.65;;;22.40;94.60;;;;;;5068188;28;20048;-65
2021/07/07 08:53:44;;;;;;;3.85;2.40;;;22.40;94.40;;;;;;5070711;28;20040;-65
2021/07/07 08:56:30;;;;;;;4.28;2.50;;;22.50;94.50;;;;;;5068435;28;20020;-65
2021/07/07 08:59:17;;;;;;;7.65;2.78;;;22.40;94.40;;;;;;5067451;28;20052;-65
2021/07/07 09:02:06;;;;;;;5.38;2.20;;;22.30;94.50;;;;;;5065111;28;20040;-65
2021/07/07 09:04:52;;;;;;;5.05;2.65;;;22.20;94.20;;;;;;5063115;28;20041;-65
2021/07/07 09:07:39;;;;;;;3.95;2.33;;;22.10;94.40;;;;;;5074809;28;20032;-65
2021/07/07 09:10:30;;;;;;;4.05;2.50;;;22.00;94.80;;;;;;5065539;28;20020;-65
2021/07/07 09:13:18;;;;;;;5.10;3.10;;;22.00;95.00;;;;;;5064254;28;20033;-65
2021/07/07 09:16:14;;;;;;;5.05;2.70;;;22.00;95.20;;;;;;5062806;28;20058;-64
2021/07/07 09:19:14;;;;;;;3.78;2.85;;;22.00;95.40;;;;;;5069009;28;20047;-64
2021/07/07 09:24:37;;;;;;;5.78;3.13;;;22.00;95.60;;;;;;5243245;22;20052;-65
2021/07/07 09:27:22;;;;;;;5.45;3.13;;;21.90;95.70;;;;;;5070651;28;20043;-65
2021/07/07 09:30:11;;;;;;;5.22;3.50;;;21.90;95.80;;;;;;5069330;28;20094;-65
2021/07/07 09:32:57;;;;;;;5.35;3.50;;;21.80;95.80;;;;;;5056218;28;20103;-64
2021/07/07 09:35:43;;;;;;;6.32;3.53;;;21.80;95.90;;;;;;5052894;28;20032;-64
2021/07/07 09:38:38;;;;;;;7.10;2.80;;;21.80;96.00;;;;;;5069423;28;20040;-64
2021/07/07 09:41:24;;;;;;;4.80;2.40;;;22.00;95.70;;;;;;5071281;28;20123;-64
2021/07/07 09:44:10;;;;;;;7.15;2.92;;;22.20;95.20;;;;;;5047725;28;20032;-64
2021/07/07 09:46:56;;;;;;;10.10;2.85;;;22.40;94.90;;;;;;5066369;28;20111;-65
2021/07/07 09:49:47;;;;;;;4.47;2.80;;;22.60;94.70;;;;;;5056109;28;20036;-65
2021/07/07 09:52:33;;;;;;;7.40;3.10;;;22.70;94.50;;;;;;5068230;28;20037;-65
2021/07/07 09:55:17;;;;;;;7.80;2.75;;;22.80;94.40;;;;;;5069590;28;20150;-65
2021/07/07 09:57:48;;;;;;;5.18;3.08;;;22.90;94.20;;;;;;5059186;28;20123;-66
2021/07/07 10:00:19;;;;;;;4.53;2.47;;;23.00;94.30;;;;;;5069467;28;20468;-66
2021/07/07 10:02:49;;;;;;;3.88;2.70;;;23.00;94.10;;;;;;5061267;28;20044;-66
2021/07/07 10:05:16;;;;;;;5.38;2.30;;;23.10;94.20;;;;;;5070652;28;20388;-66
2021/07/07 10:07:44;;;;;;;5.15;2.40;;;23.10;93.70;;;;;;5070503;28;20052;-66
2021/07/07 10:10:14;;;;;;;5.20;2.33;;;23.30;93.30;;;;;;5070434;28;20020;-66
2021/07/07 10:12:44;;;;;;;3.85;2.17;;;23.30;92.80;;;;;;5071387;28;20028;-66
2021/07/07 10:15:15;;;;;;;6.90;2.35;;;23.50;92.80;;;;;;5071241;28;20038;-66
2021/07/07 10:17:41;;;;;;;6.63;2.25;;;23.50;92.80;;;;;;5069391;28;20032;-66
2021/07/07 10:20:09;;;;;;;4.97;2.25;;;23.50;92.70;;;;;;5069224;28;20092;-65
2021/07/07 10:22:37;;;;;;;3.95;2.00;;;23.60;92.80;;;;;;5069682;28;20119;-66
2021/07/07 10:25:07;;;;;;;5.03;2.60;;;23.60;92.50;;;;;;5065326;28;20047;-66
2021/07/07 10:27:34;;;;;;;4.85;2.25;;;23.60;92.20;;;;;;5070726;28;20036;-66
2021/07/07 10:30:00;;;;;;;3.05;1.80;;;23.70;92.10;;;;;;5068986;28;20072;-66
2021/07/07 10:32:29;;;;;;;5.70;2.78;;;23.60;92.00;;;;;;5070613;28;20064;-66
2021/07/07 10:34:54;;;;;;;3.83;2.33;;;23.70;91.80;;;;;;5070000;28;20070;-66
2021/07/07 10:37:23;;;;;;;4.20;2.15;;;23.60;91.80;;;;;;5069783;28;20256;-66
2021/07/07 10:39:49;;;;;;;3.92;2.38;;;23.60;91.90;;;;;;5069935;28;20130;-66
2021/07/07 10:42:15;;;;;;;3.95;2.35;;;23.50;92.00;;;;;;5069840;28;20471;-66
2021/07/07 10:44:41;;;;;;;5.57;2.58;;;23.40;92.20;;;;;;5070170;28;20024;-66
2021/07/07 10:47:12;;;;;;;3.50;2.15;;;23.20;92.40;;;;;;5069896;28;20479;-65
2021/07/07 10:49:51;;;;;;;4.13;2.60;;;23.10;92.50;;;;;;5068804;28;20035;-66
2021/07/07 10:52:31;;;;;;;4.40;2.25;;;23.00;92.60;;;;;;5069604;28;20016;-66
2021/07/07 10:54:59;;;;;;;5.00;2.40;;;22.90;92.80;;;;;;5067442;28;20032;-65
2021/07/07 10:57:26;;;;;;;4.88;2.40;;;22.90;93.10;;;;;;5068808;28;20094;-66
2021/07/07 10:59:54;;;;;;;3.90;2.05;;;22.80;93.40;;;;;;5071754;28;20036;-66
2021/07/07 11:02:22;;;;;;;3.65;2.17;;;22.90;93.40;;;;;;5073606;28;20021;-65
2021/07/07 11:04:58;;;;;;;4.93;2.30;;;22.90;93.50;;;;;;5074602;28;20029;-65
2021/07/07 11:07:32;;;;;;;3.38;2.10;;;23.00;93.50;;;;;;5073163;28;20029;-65
2021/07/07 11:10:17;;;;;;;3.83;2.28;;;23.00;93.50;;;;;;5074441;28;20063;-65
2021/07/07 11:12:43;;;;;;;4.32;2.30;;;23.10;93.50;;;;;;5070828;28;20111;-64
2021/07/07 11:15:10;;;;;;;4.38;2.20;;;23.10;93.50;;;;;;5070760;28;20496;-64
2021/07/07 11:17:45;;;;;;;3.25;2.00;;;23.10;93.40;;;;;;5071355;28;20476;-64
2021/07/07 11:20:19;;;;;;;3.45;1.88;;;23.10;93.60;;;;;;5073500;28;20028;-64
2021/07/07 11:22:46;;;;;;;4.97;2.20;;;23.10;93.40;;;;;;5056375;28;20211;-64
2021/07/07 11:25:14;;;;;;;5.32;2.53;;;23.30;93.40;;;;;;5071267;28;20025;-65
2021/07/07 11:27:41;;;;;;;8.32;2.25;;;23.50;92.90;;;;;;5074679;28;20127;-66
2021/07/07 11:30:12;;;;;;;3.17;2.40;;;23.60;92.70;;;;;;5073417;28;20036;-65
2021/07/07 11:32:42;;;;;;;4.45;2.20;;;23.70;92.70;;;;;;5074015;28;20084;-65
2021/07/07 11:35:14;;;;;;;3.67;2.20;;;23.70;92.80;;;;;;5071560;28;20070;-65
2021/07/07 11:37:40;;;;;;;5.80;1.98;;;23.70;93.10;;;;;;5074054;28;20055;-66
2021/07/07 11:40:20;;;;;;;4.32;2.17;;;23.70;93.20;;;;;;5073066;28;20517;-65
2021/07/07 11:43:02;;;;;;;3.90;2.40;;;23.60;92.80;;;;;;5071748;28;20369;-66
2021/07/07 11:45:31;;;;;;;7.70;2.72;;;23.60;92.90;;;;;;5072838;28;20384;-66
2021/07/07 11:50:41;;;;;;;3.65;2.20;;;23.60;93.00;;;;;;5067063;28;20029;-65
2021/07/07 11:53:09;;;;;;;2.65;2.03;;;23.60;92.40;;;;;;5073166;28;20712;-65
2021/07/07 11:55:49;;;;;;;3.15;2.20;;;23.60;92.20;;;;;;5071668;28;20158;-66
2021/07/07 11:58:45;;;;;;;4.47;2.00;;;23.50;92.50;;;;;;5072659;28;20028;-65
2021/07/07 12:01:24;;;;;;;3.78;2.17;;;23.50;92.70;;;;;;5058595;28;20543;-65
2021/07/07 12:04:12;;;;;;;5.05;2.78;;;23.50;92.70;;;;;;5072746;28;20448;-65
2021/07/07 12:06:38;;;;;;;3.28;2.53;;;23.50;92.60;;;;;;5071012;28;20483;-65
2021/07/07 12:09:22;;;;;;;4.25;2.92;;;23.60;92.10;;;;;;5072395;28;20365;-65
2021/07/07 12:12:07;;;;;;;4.60;2.50;;;23.60;92.00;;;;;;5072814;28;20033;-65
2021/07/07 12:14:35;;;;;;;3.95;2.47;;;23.70;92.70;;;;;;5072635;28;20496;-65
2021/07/07 12:17:02;;;;;;;3.83;2.15;;;23.90;92.80;;;;;;5070828;28;20052;-65
2021/07/07 12:19:28;;;;;;;6.00;2.22;;;24.00;92.20;;;;;;5070778;28;20044;-65
2021/07/07 12:22:06;;;;;;;4.20;2.03;;;24.10;92.10;;;;;;5073358;28;20086;-65
2021/07/07 12:24:39;;;;;;;3.63;2.40;;;24.20;92.00;;;;;;5072157;28;20585;-64
2021/07/07 12:27:07;;;;;;;4.57;2.55;;;24.30;92.00;;;;;;5073174;28;20531;-64
2021/07/07 12:29:35;;;;;;;4.10;2.20;;;24.40;92.10;;;;;;5073006;28;20064;-64
2021/07/07 12:32:04;;;;;;;3.03;2.38;;;24.50;90.90;;;;;;5071199;28;20032;-64
2021/07/07 12:34:41;;;;;;;4.03;2.08;;;24.50;91.00;;;;;;5066344;28;20027;-64
2021/07/07 12:37:15;;;;;;;4.85;1.92;;;24.50;90.50;;;;;;5066919;28;20043;-64
2021/07/07 12:40:00;;;;;;;;;;;24.50;90.50;;;;;;5069282;28;20048;-64
2021/07/07 12:42:31;;;;;;;3.90;1.95;;;24.50;90.60;;;;;;5068339;28;19916;-64
2021/07/07 12:45:11;;;;;;;4.63;2.00;;;24.60;90.90;;;;;;5071268;28;20463;-64
2021/07/07 12:47:37;;;;;;;2.60;1.50;;;24.70;90.30;;;;;;5062043;28;20056;-64
2021/07/07 12:50:24;;;;;;;2.45;1.58;;;24.80;89.60;;;;;;5068490;28;20519;-64
2021/07/07 12:52:50;;;;;;;3.45;1.58;;;24.90;88.00;;;;;;5062293;28;20083;-64
2021/07/07 12:55:19;;;;;;;4.50;1.85;;;24.90;89.50;;;;;;5066780;28;20036;-64
2021/07/07 12:57:49;;;;;;;4.22;1.60;;;25.00;89.40;;;;;;5048054;28;20579;-65
2021/07/07 13:00:18;;;;;;;3.47;1.38;;;25.10;89.00;;;;;;5064564;28;20364;-65
2021/07/07 13:02:48;;;;;;;2.40;1.65;;;25.10;88.90;;;;;;5069233;28;20098;-65
2021/07/07 13:05:14;;;;;;;3.30;1.98;;;25.30;87.30;;;;;;5069078;28;20043;-65
2021/07/07 13:07:40;;;;;;;3.22;1.90;;;25.30;87.20;;;;;;5069333;28;20036;-65
2021/07/07 13:10:05;;;;;;;2.20;1.40;;;25.30;86.00;;;;;;5068770;28;20419;-65
2021/07/07 13:12:31;;;;;;;2.03;1.40;;;25.40;85.40;;;;;;5068321;28;20111;-65
2021/07/07 13:14:57;;;;;;;1.88;1.50;;;25.40;84.50;;;;;;5068081;28;20023;-64
2021/07/07 13:17:23;;;;;;;12.05;2.10;;;25.30;85.30;;;;;;5062579;28;20037;-65
2021/07/07 13:20:00;;;;;;;3.25;1.88;;;25.30;85.30;;;;;;5065220;28;20132;-65
2021/07/07 13:22:26;;;;;;;4.07;1.52;;;25.20;85.90;;;;;;5067889;28;20032;-65
2021/07/07 13:24:51;;;;;;;2.58;1.70;;;25.20;86.80;;;;;;5067974;28;20114;-65
2021/07/07 13:27:19;;;;;;;3.28;1.98;;;25.10;87.10;;;;;;5067383;28;20135;-65
2021/07/07 13:29:47;;;;;;;3.08;1.88;;;25.00;85.70;;;;;;5069226;28;20032;-65
2021/07/07 13:32:22;;;;;;;4.20;1.90;;;25.00;85.00;;;;;;5051633;28;20029;-65
2021/07/07 13:35:04;;;;;;;3.45;2.13;;;25.00;86.70;;;;;;5051362;28;20028;-65
2021/07/07 13:37:39;;;;;;;4.03;2.00;;;25.10;86.90;;;;;;5062738;28;20028;-65
2021/07/07 13:40:25;;;;;;;3.95;1.90;;;25.10;87.20;;;;;;5057120;28;20105;-65
2021/07/07 13:42:51;;;;;;;3.55;1.70;;;25.30;86.90;;;;;;5056266;28;20040;-65
2021/07/07 13:45:19;;;;;;;3.35;1.90;;;25.30;87.20;;;;;;5058207;28;20073;-65
2021/07/07 13:47:45;;;;;;;2.85;2.00;;;25.30;85.50;;;;;;5058991;28;20055;-65
2021/07/07 13:50:13;;;;;;;3.55;1.95;;;25.30;86.90;;;;;;5059020;28;20028;-65
2021/07/07 13:52:38;;;;;;;3.20;2.20;;;25.40;86.30;;;;;;5062888;28;20036;-65
2021/07/07 13:55:06;;;;;;;2.17;1.67;;;25.50;85.90;;;;;;5066058;28;20028;-65
2021/07/07 13:57:31;;;;;;;5.43;2.70;;;25.50;83.80;;;;;;5054449;28;20085;-65
2021/07/07 13:59:57;;;;;;;3.20;2.13;;;25.40;83.00;;;;;;5048871;28;20111;-65
2021/07/07 14:02:22;;;;;;;3.20;2.30;;;25.50;82.70;;;;;;5064142;28;20063;-65
2021/07/07 14:04:48;;;;;;;4.28;2.45;;;25.70;84.20;;;;;;5062365;28;20035;-65